createdAt,value
2019-01-14T00:12:13.032Z,6.2
2019-01-14T00:27:00.878Z,6.8
2019-01-14T00:41:25.801Z,6.3
2019-01-14T00:57:24.171Z,4.8
2019-01-14T01:12:17.612Z,4.4
2019-01-14T01:27:01.707Z,4.9
2019-01-14T01:41:51.966Z,5
2019-01-14T01:56:50.101Z,3.4
2019-01-14T02:11:36.573Z,3.4
2019-01-14T02:26:28.045Z,3
2019-01-14T02:42:07.346Z,4.7
2019-01-14T02:56:47.197Z,4.1
2019-01-14T03:11:27.752Z,4
2019-01-14T03:27:15.681Z,3.8
2019-01-14T03:41:45.988Z,2.6
2019-01-14T03:57:22.318Z,2.5
2019-01-14T04:11:53.664Z,2.5
2019-01-14T04:26:44.965Z,3
2019-01-14T04:42:00.943Z,3.5
2019-01-14T04:56:49.150Z,3.2
2019-01-14T05:12:18.485Z,2.7
2019-01-14T05:27:11.851Z,2.7
2019-01-14T05:41:37.430Z,2.5
2019-01-14T05:57:06.643Z,3.3
2019-01-14T06:12:16.203Z,2.7
2019-01-14T06:26:57.118Z,2.8
2019-01-14T06:41:41.660Z,3.6
2019-01-14T06:57:24.404Z,4.8
2019-01-14T07:12:08.694Z,6
2019-01-14T07:26:37.567Z,5.2
2019-01-14T07:42:15.810Z,5.3
2019-01-14T07:56:58.448Z,6.8
2019-01-14T08:12:10.901Z,6.4
2019-01-14T08:27:03.483Z,4.2
2019-01-14T08:42:23.091Z,5
2019-01-14T08:56:51.161Z,7.1
2019-01-14T09:12:20.699Z,5.3
2019-01-14T09:26:57.186Z,7.1
2019-01-14T09:42:19.524Z,6.2
2019-01-14T09:57:27.095Z,7.1
2019-01-14T10:11:46.577Z,5.8
2019-01-14T10:27:12.385Z,5.6
2019-01-14T10:41:47.780Z,4.9
2019-01-14T10:57:30.649Z,5.9
2019-01-14T11:12:16.545Z,4.7
2019-01-14T11:26:49.542Z,5.4
2019-01-14T11:41:44.928Z,4.8
2019-01-14T11:58:04.519Z,3.4
2019-01-14T12:00:28.172Z,3.4
2019-01-14T12:12:10.920Z,6.4
2019-01-14T12:26:47.047Z,5.2
2019-01-14T12:42:23.418Z,4
2019-01-14T12:57:06.162Z,6.2
2019-01-14T13:12:40.994Z,5.6
2019-01-14T13:27:12.377Z,5.3
2019-01-14T13:41:53.044Z,4.9
2019-01-14T13:57:21.001Z,6
2019-01-14T14:12:01.090Z,6.5
2019-01-14T14:27:24.232Z,5.4
2019-01-14T14:42:01.681Z,4.9
2019-01-14T14:57:35.309Z,6.7
2019-01-14T15:12:16.593Z,12.1
2019-01-14T15:27:11.234Z,10.4
2019-01-14T15:42:46.069Z,10.5
2019-01-14T15:57:38.919Z,9.1
2019-01-14T16:12:08.400Z,11.7
2019-01-14T16:26:58.827Z,8.1
2019-01-14T16:29:47.153Z,8.1
2019-01-14T16:32:10.821Z,8.1
2019-01-14T16:42:00.130Z,9.4
2019-01-14T16:57:52.270Z,9.8
2019-01-14T17:12:45.909Z,8.5
2019-01-14T17:27:21.972Z,8.7
2019-01-14T17:42:19.764Z,7.5
2019-01-14T17:57:18.533Z,12
2019-01-14T18:12:05.661Z,7.9
2019-01-14T18:27:58.663Z,8.5
2019-01-14T18:42:19.398Z,6.6
2019-01-14T18:48:03.368Z,6.6
2019-01-14T18:58:19.656Z,5.8
2019-01-14T19:09:52.547Z,5.8
2019-01-14T19:12:24.560Z,9
2019-01-14T19:14:58.942Z,9
2019-01-14T19:18:39.430Z,9
2019-01-14T19:21:16.489Z,9
2019-01-14T19:23:42.697Z,9
2019-01-14T19:26:12.150Z,9
2019-01-14T19:27:32.158Z,6.1
2019-01-14T19:30:07.565Z,6.1
2019-01-14T19:31:29.700Z,6.1
2019-01-14T19:33:06.414Z,6.1
2019-01-14T19:35:41.978Z,6.1
2019-01-14T19:38:22.072Z,6.1
2019-01-14T19:40:49.055Z,6.1
2019-01-14T19:43:15.293Z,5
2019-01-14T19:45:50.521Z,5
2019-01-14T19:57:57.687Z,7.9
2019-01-14T20:12:39.257Z,9
2019-01-14T20:27:44.671Z,7.5
2019-01-14T20:42:36.447Z,9.6
2019-01-14T20:57:41.930Z,8.9
2019-01-14T21:12:50.899Z,9.5
2019-01-14T21:27:47.429Z,6.8
2019-01-14T21:42:35.560Z,8.1
2019-01-14T21:57:31.057Z,7.9
2019-01-14T22:12:15.654Z,9.6
2019-01-14T22:28:06.477Z,8.6
2019-01-14T22:42:50.509Z,6.2
2019-01-14T22:57:37.401Z,6.7
2019-01-14T23:05:22.107Z,6.7
2019-01-14T23:06:43.193Z,6.7
2019-01-14T23:09:14.885Z,6.7
2019-01-14T23:11:57.984Z,6.7
2019-01-14T23:12:52.887Z,6.5
2019-01-14T23:14:30.330Z,6.5
2019-01-14T23:16:59.734Z,6.5
2019-01-14T23:19:27.560Z,6.5
2019-01-14T23:21:58.576Z,6.5
2019-01-14T23:24:29.542Z,6.5
2019-01-14T23:27:01.071Z,6.5
2019-01-14T23:27:58.036Z,6.2
2019-01-14T23:29:31.077Z,6.2
2019-01-14T23:32:01.798Z,6.2
2019-01-14T23:34:38.694Z,6.2
2019-01-14T23:36:58.532Z,6.2
2019-01-14T23:40:50.408Z,6.2
2019-01-14T23:42:48.597Z,5.9
2019-01-14T23:58:12.409Z,7.5
